Etusivu
METAR-TAF:

METAR-TAF

Lentoasemat :

Tekamah Municipal Airport

Tekamah, Nebraska, Yhdysvallat

Leveyspiiri: 41-46-01N, Pituuspiiri: 096-10-40W, korkeus merenpinnasta: 313 m

Tämänhetkinen sää

Tämä raportti tehtiin 15 minuuttia sitten, kello 12.54 UTC
Tuuli 5 kn etelästä/kaakosta
Lämpötila -6°C
Kosteus 93%
Ilmanpaine 1026 hPa
Näkyvyys: 16.1 km
selkeää

METAR: KTQE 151254Z AUTO 16005KT 10SM CLR M06/M07 A3029 RMK AO2 SLP268 T10561072

Aika: 07:09 (13:09 UTC)


TAF: puuttuu

Säähavainnot ja -ennusteet yli 4000 lentoasemalta (METAR- ja TAF-raportit).

Käytössä olevat sääasemat on merkitty karttaan keltaisilla ja punaisilla pisteillä.

Aseta hiiri pisteen päälle nähdäksesi sääaseman nimen.

Klikkaa sitten nähdäksesi säähavainnot ja -ennusteet.

Kartan vaihtaminen: klikkaa mustalla rastilla varustettuja vihreitä pisteitä, niin voit zoomata sisään; viivalla varustettua vihreää pistettä, niin voit zoomata ulos tai vihreitä nuolia, niin pääset viereisille kartoille.


METAR-TAF: